Estació municipal de El Brull (Osona, P.N. del Montseny)

Consulta les dades en temps real de l'estació municipal de El Brull





Hora UTC 08:10
Temperatura 23.8 ºC
Humitat 67.2 %
Pressió 1022.7 hPa
Pluja 0.0 mm
Velocitat vent 1.3 km/h
Direcció vent NNW
Radiació solar 443.4 W/m²

Webcam

Dades diàries 2026-09-01



Hora UTC (hivern +1h; estiu +2h)
Temperatura (ºC) Humitat (%) Pressió (hPa) Velocitat vent (km/h) Precipitació (mm) Radiació solar (W/m²)
Hora UTC Aire Humitat Pressió Vel. Dir. Vel. Max Dir. Intent. màx 5 min. Rad. Sol.
00:10 18.6 84.1 1023.5 1.2 SSW 3.6 S 0.0 0.0
00:30 18.5 85.7 1023.4 1.1 SE 2.9 SE 0.0 0.0
00:50 18.4 86.6 1023.4 2.9 S 5.4 S 0.0 0.0
01:00 18.6 87.3 1023.4 3.7 S 6.7 SSW 0.0 0.0
01:10 18.6 87.7 1023.4 4.3 SSW 7.4 SSW 0.0 0.0
01:20 18.6 88.2 1023.3 2.9 SSW 5.3 SSW 0.0 0.0
01:30 18.5 88.6 1023.4 3.6 SSW 8.1 SSW 0.0 0.0
01:40 18.4 89.0 1023.4 2.9 SSW 5.3 SSW 0.0 0.0
01:50 18.3 89.3 1023.4 2.6 S 6.0 SSE 0.0 0.0
02:00 18.3 89.0 1023.3 3.2 S 5.3 S 0.0 0.0
02:10 18.3 88.8 1023.3 2.8 SSW 5.3 S 0.0 0.0
02:20 18.3 88.7 1023.3 3.1 S 4.9 SW 0.0 0.0
02:30 18.3 89.0 1023.2 3.6 S 6.0 S 0.0 0.0
02:40 18.4 89.3 1023.0 2.2 S 4.4 S 0.0 0.0
02:50 18.4 89.5 1023.0 1.6 SSW 3.1 SSW 0.0 0.0
03:00 18.5 89.3 1023.0 1.9 S 2.9 SSE 0.0 0.0
03:10 18.4 89.3 1022.9 1.9 S 2.7 S 0.0 0.0
03:20 18.3 88.9 1022.8 2.2 SSE 3.1 SSE 0.0 0.0
03:30 18.1 88.6 1022.7 1.4 SSE 4.2 SSE 0.0 0.0
03:40 18.0 89.0 1022.7 0.5 SSW 3.5 SSW 0.0 0.0
03:50 17.8 88.9 1022.6 0.0 SSE 0.9 S 0.0 0.0
04:00 17.9 89.6 1022.6 1.3 SE 2.4 SSE 0.0 0.0
04:10 17.9 89.8 1022.6 1.2 ESE 4.1 ESE 0.0 0.0
04:20 17.9 89.6 1022.5 2.0 SE 4.4 ESE 0.0 0.0
04:30 18.0 89.5 1022.5 1.7 ESE 4.0 ESE 0.0 0.0
04:40 18.0 89.0 1022.4 1.6 SE 3.9 SE 0.0 0.0
04:50 17.9 88.3 1022.4 3.1 SE 5.6 SE 0.0 0.0
05:00 17.7 87.9 1022.4 1.6 ESE 3.6 SE 0.0 0.2
05:10 17.5 88.4 1022.4 2.0 ESE 3.5 ESE 0.0 1.2
05:20 17.5 88.8 1022.4 1.8 ESE 3.5 ESE 0.0 3.5
05:30 17.4 88.8 1022.5 1.1 ESE 3.4 ESE 0.0 7.6
05:40 17.5 88.5 1022.6 1.1 E 3.4 ESE 0.0 13.0
05:50 17.6 88.1 1022.6 1.1 ESE 2.4 SE 0.0 23.4
06:00 17.8 87.1 1022.6 1.0 ESE 4.0 SE 0.0 30.2
06:10 17.9 86.2 1022.6 0.9 SE 3.2 SE 0.0 30.8
06:30 18.4 85.9 1022.7 2.1 SSE 5.5 SSE 0.0 47.3
06:40 18.7 84.5 1022.7 3.0 SSE 5.6 SSE 0.0 127.2
06:50 19.2 82.8 1022.8 3.1 SSE 5.9 S 0.0 191.7
07:00 20.1 79.8 1022.8 2.0 S 4.8 SE 0.0 222.4
07:10 20.9 77.5 1022.8 2.4 S 4.9 SSE 0.0 255.9
07:20 21.1 76.5 1022.9 1.4 WNW 3.9 W 0.0 288.2
07:30 22.3 72.9 1023.0 1.1 SW 5.2 N 0.0 328.6
07:40 22.7 71.2 1022.8 1.7 N 5.2 NW 0.0 351.1
07:50 23.1 70.3 1022.7 2.3 NE 8.1 NNE 0.0 385.0
08:00 23.6 68.4 1022.7 2.7 N 10.0 N 0.0 416.7
08:10 23.8 67.2 1022.7 1.3 NNW 6.1 NW 0.0 443.4
Màxima 23.8 89.8 1023.5 4.3 SSW 10.0 N 0.0 443.4
Mínima 17.4 67.2 1022.4
Total 0.0